Time;durP1;ratioP1;P1;durP2;ratioP2;P2;SDS_P1;SDS_P2;PMS_P1;PMS_P2;Temp;Humidity;BMP_temperature;BMP_pressure;BME280_temperature;BME280_humidity;BME280_pressure;Samples;Min_cycle;Max_cycle;Signal;HPM_P1;HPM_P2
2021/09/03 00:01:51;;;;;;;0.05;0.05;;;;;;;;;;5044242;28;20407;-59
2021/09/03 00:04:19;;;;;;;0.10;0.10;;;;;;;;;;5041294;28;20295;-59
2021/09/03 00:06:45;;;;;;;0.05;0.05;;;;;;;;;;5023866;28;20253;-59
2021/09/03 00:09:13;;;;;;;0.00;0.00;;;;;;;;;;5023074;28;20259;-61
2021/09/03 00:11:39;;;;;;;0.10;0.10;;;;;;;;;;5024389;28;20404;-60
2021/09/03 00:14:05;;;;;;;0.10;0.10;;;;;;;;;;5024351;28;20254;-59
2021/09/03 00:16:31;;;;;;;0.10;0.10;;;;;;;;;;5024167;28;20207;-59
2021/09/03 00:18:58;;;;;;;0.10;0.10;;;;;;;;;;5024159;28;20253;-61
2021/09/03 00:21:24;;;;;;;0.00;0.00;;;;;;;;;;5024074;28;20236;-60
2021/09/03 00:23:50;;;;;;;0.10;0.10;;;;;;;;;;5023787;28;20205;-60
2021/09/03 00:26:18;;;;;;;0.10;0.10;;;;;;;;;;5024067;28;20556;-59
2021/09/03 00:28:44;;;;;;;0.10;0.10;;;;;;;;;;5023672;28;20210;-58
2021/09/03 00:31:10;;;;;;;0.10;0.10;;;;;;;;;;5023962;28;20203;-59
2021/09/03 00:33:37;;;;;;;0.00;0.00;;;;;;;;;;5023778;28;20498;-59
2021/09/03 00:36:03;;;;;;;0.10;0.10;;;;;;;;;;5023901;28;20431;-59
2021/09/03 00:38:29;;;;;;;0.10;0.10;;;;;;;;;;5023730;28;20275;-59
2021/09/03 00:40:55;;;;;;;0.05;0.05;;;;;;;;;;5032416;28;20207;-60
2021/09/03 00:43:23;;;;;;;0.10;0.10;;;;;;;;;;5031562;28;20206;-60
2021/09/03 00:45:49;;;;;;;0.10;0.10;;;;;;;;;;5023894;28;20218;-60
2021/09/03 00:48:15;;;;;;;0.10;0.10;;;;;;;;;;5023448;28;20502;-58
2021/09/03 00:50:43;;;;;;;0.10;0.10;;;;;;;;;;5023191;28;20271;-60
2021/09/03 00:53:09;;;;;;;0.10;0.10;;;;;;;;;;5023594;28;20248;-60
2021/09/03 00:55:36;;;;;;;0.10;0.10;;;;;;;;;;5027354;28;20204;-59
2021/09/03 00:58:02;;;;;;;0.10;0.10;;;;;;;;;;5025046;28;20253;-59
2021/09/03 01:00:29;;;;;;;0.08;0.08;;;;;;;;;;5023133;28;20207;-59
2021/09/03 01:02:56;;;;;;;0.10;0.10;;;;;;;;;;5020105;28;20397;-59
2021/09/03 01:05:23;;;;;;;0.10;0.10;;;;;;;;;;5023586;28;20212;-59
2021/09/03 01:07:50;;;;;;;0.10;0.10;;;;;;;;;;5025322;28;20202;-59
2021/09/03 01:10:17;;;;;;;0.10;0.10;;;;;;;;;;5023068;28;20221;-60
2021/09/03 01:12:43;;;;;;;0.10;0.10;;;;;;;;;;5023327;28;20519;-59
2021/09/03 01:15:11;;;;;;;0.00;0.00;;;;;;;;;;5023325;28;20367;-59
2021/09/03 01:17:39;;;;;;;0.10;0.10;;;;;;;;;;5029418;28;20253;-60
2021/09/03 01:20:07;;;;;;;0.00;0.00;;;;;;;;;;5022759;28;20548;-61
2021/09/03 01:22:34;;;;;;;0.00;0.00;;;;;;;;;;5023131;28;20246;-62
2021/09/03 01:25:03;;;;;;;0.10;0.10;;;;;;;;;;5022993;28;20206;-62
2021/09/03 01:27:29;;;;;;;32.00;15.48;;;;;;;;;;5014164;28;20209;-61
2021/09/03 01:29:55;;;;;;;0.00;0.00;;;;;;;;;;5017281;28;20229;-61
2021/09/03 01:32:22;;;;;;;0.00;0.00;;;;;;;;;;5025437;28;20207;-62
2021/09/03 01:34:48;;;;;;;0.10;0.10;;;;;;;;;;5027781;28;20210;-60
2021/09/03 01:37:14;;;;;;;0.10;0.10;;;;;;;;;;5019693;28;20206;-61
2021/09/03 01:39:42;;;;;;;0.10;0.10;;;;;;;;;;5029862;28;20277;-61
2021/09/03 01:42:08;;;;;;;0.10;0.10;;;;;;;;;;5020443;28;20450;-61
2021/09/03 01:44:35;;;;;;;0.10;0.10;;;;;;;;;;5020078;28;20299;-60
2021/09/03 01:47:01;;;;;;;0.10;0.10;;;;;;;;;;5022431;28;20202;-61
2021/09/03 01:49:27;;;;;;;0.10;0.10;;;;;;;;;;5009422;28;20247;-61
2021/09/03 01:51:53;;;;;;;0.08;0.08;;;;;;;;;;5009136;28;20199;-62
2021/09/03 01:54:20;;;;;;;0.10;0.10;;;;;;;;;;5013696;28;20206;-61
2021/09/03 01:56:47;;;;;;;0.10;0.10;;;;;;;;;;5022747;28;20210;-60
2021/09/03 01:59:13;;;;;;;0.00;0.00;;;;;;;;;;5013255;28;20370;-61
2021/09/03 02:01:40;;;;;;;0.10;0.10;;;;;;;;;;5011122;28;20237;-60
2021/09/03 02:04:06;;;;;;;0.10;0.10;;;;;;;;;;5010395;28;20273;-60
2021/09/03 02:06:32;;;;;;;0.10;0.10;;;;;;;;;;5017449;28;20225;-62
2021/09/03 02:08:58;;;;;;;0.10;0.10;;;;;;;;;;5017234;28;20206;-61
2021/09/03 02:11:26;;;;;;;0.08;0.08;;;;;;;;;;5017881;28;20253;-60
2021/09/03 02:13:53;;;;;;;0.10;0.10;;;;;;;;;;5020528;28;20264;-61
2021/09/03 02:16:20;;;;;;;0.10;0.10;;;;;;;;;;5016604;28;20211;-61
2021/09/03 02:18:46;;;;;;;0.10;0.10;;;;;;;;;;5022898;28;20221;-61
2021/09/03 02:21:12;;;;;;;0.10;0.10;;;;;;;;;;5031899;28;20207;-61
2021/09/03 02:23:39;;;;;;;0.10;0.10;;;;;;;;;;5022626;28;20226;-60
2021/09/03 02:26:05;;;;;;;0.10;0.10;;;;;;;;;;5020527;28;20207;-61
2021/09/03 02:28:31;;;;;;;0.00;0.00;;;;;;;;;;5020789;28;20245;-62
2021/09/03 02:30:59;;;;;;;0.00;0.00;;;;;;;;;;5022453;28;20416;-61
2021/09/03 02:33:25;;;;;;;0.10;0.10;;;;;;;;;;5025964;28;20624;-61
2021/09/03 02:35:51;;;;;;;0.03;0.03;;;;;;;;;;5018347;28;20293;-61
2021/09/03 02:38:18;;;;;;;0.08;0.08;;;;;;;;;;5012483;28;20232;-61
2021/09/03 02:40:44;;;;;;;0.10;0.10;;;;;;;;;;5025175;28;20332;-60
2021/09/03 02:43:10;;;;;;;0.10;0.10;;;;;;;;;;5034223;28;21458;-61
2021/09/03 02:45:36;;;;;;;0.10;0.10;;;;;;;;;;5014696;28;20204;-59
2021/09/03 02:48:04;;;;;;;0.00;0.00;;;;;;;;;;5022018;28;20203;-59
2021/09/03 02:50:31;;;;;;;0.10;0.10;;;;;;;;;;5018621;28;20261;-60
2021/09/03 02:52:58;;;;;;;0.10;0.10;;;;;;;;;;5018262;28;20205;-60
2021/09/03 02:55:25;;;;;;;0.00;0.00;;;;;;;;;;5025800;28;20444;-60
2021/09/03 02:57:51;;;;;;;0.10;0.10;;;;;;;;;;5036506;28;20245;-60
2021/09/03 03:00:17;;;;;;;0.10;0.10;;;;;;;;;;5025706;28;20344;-59
2021/09/03 03:02:44;;;;;;;0.10;0.10;;;;;;;;;;5026037;28;20561;-59
2021/09/03 03:05:12;;;;;;;0.10;0.10;;;;;;;;;;5017871;28;20201;-59
2021/09/03 03:07:38;;;;;;;0.10;0.10;;;;;;;;;;5013159;28;20213;-59
2021/09/03 03:10:05;;;;;;;0.03;0.03;;;;;;;;;;5015222;28;20431;-61
2021/09/03 03:12:31;;;;;;;0.10;0.10;;;;;;;;;;5014660;28;20492;-59
2021/09/03 03:14:57;;;;;;;0.00;0.00;;;;;;;;;;5018616;28;20240;-61
2021/09/03 03:17:24;;;;;;;0.10;0.10;;;;;;;;;;5019869;28;20281;-60
2021/09/03 03:19:50;;;;;;;0.10;0.10;;;;;;;;;;5015718;28;20211;-61
2021/09/03 03:22:18;;;;;;;0.00;0.00;;;;;;;;;;5016813;28;20265;-60
2021/09/03 03:24:44;;;;;;;0.10;0.10;;;;;;;;;;5017576;28;20211;-60
2021/09/03 03:27:11;;;;;;;0.10;0.10;;;;;;;;;;5025112;28;20205;-61
2021/09/03 03:29:37;;;;;;;0.00;0.00;;;;;;;;;;5019987;28;20201;-60
2021/09/03 03:32:04;;;;;;;0.10;0.10;;;;;;;;;;5024927;28;20245;-59
2021/09/03 03:34:30;;;;;;;0.10;0.10;;;;;;;;;;5025034;28;20202;-59
2021/09/03 03:36:56;;;;;;;0.10;0.10;;;;;;;;;;5020692;28;20408;-60
2021/09/03 03:39:24;;;;;;;0.10;0.10;;;;;;;;;;5024392;28;20222;-60
2021/09/03 03:41:52;;;;;;;0.10;0.10;;;;;;;;;;5020828;28;20247;-60
2021/09/03 03:44:18;;;;;;;0.10;0.10;;;;;;;;;;5027223;28;20385;-60
2021/09/03 03:46:44;;;;;;;0.10;0.10;;;;;;;;;;5025054;28;20204;-60
2021/09/03 03:49:10;;;;;;;0.08;0.08;;;;;;;;;;5025628;28;20205;-59
2021/09/03 03:51:37;;;;;;;0.00;0.00;;;;;;;;;;5024255;28;20203;-59
2021/09/03 03:54:03;;;;;;;0.10;0.10;;;;;;;;;;5019429;28;20236;-59
2021/09/03 03:56:30;;;;;;;0.10;0.10;;;;;;;;;;5015921;28;20203;-60
2021/09/03 03:58:57;;;;;;;0.08;0.08;;;;;;;;;;5022652;28;20249;-59
2021/09/03 04:01:23;;;;;;;0.05;0.05;;;;;;;;;;5025447;28;20206;-59
2021/09/03 04:03:49;;;;;;;0.10;0.10;;;;;;;;;;5018489;28;20261;-60
2021/09/03 04:06:15;;;;;;;0.00;0.00;;;;;;;;;;5023794;28;20266;-60
2021/09/03 04:08:42;;;;;;;0.00;0.00;;;;;;;;;;5018742;28;20208;-61
2021/09/03 04:11:08;;;;;;;0.03;0.03;;;;;;;;;;5029212;28;20424;-61
2021/09/03 04:13:35;;;;;;;0.10;0.10;;;;;;;;;;5015931;28;20264;-61
2021/09/03 04:16:04;;;;;;;0.00;0.00;;;;;;;;;;5027408;28;20209;-62
2021/09/03 04:18:30;;;;;;;0.00;0.00;;;;;;;;;;5025829;28;20548;-61
2021/09/03 04:20:57;;;;;;;0.08;0.08;;;;;;;;;;5025161;28;20252;-60
2021/09/03 04:23:23;;;;;;;0.10;0.10;;;;;;;;;;5014540;28;20229;-61
2021/09/03 04:25:49;;;;;;;0.10;0.10;;;;;;;;;;5020350;28;20205;-61
2021/09/03 04:28:15;;;;;;;0.10;0.10;;;;;;;;;;5018359;28;20257;-61
2021/09/03 04:30:43;;;;;;;0.10;0.10;;;;;;;;;;5022022;28;20238;-61
2021/09/03 04:33:09;;;;;;;0.00;0.00;;;;;;;;;;5022885;28;20212;-61
2021/09/03 04:35:35;;;;;;;0.10;0.10;;;;;;;;;;5023916;28;20260;-61
2021/09/03 04:38:01;;;;;;;0.05;0.05;;;;;;;;;;5023819;28;20209;-60
2021/09/03 04:40:28;;;;;;;0.00;0.00;;;;;;;;;;5017841;28;20214;-60
2021/09/03 04:42:54;;;;;;;0.10;0.10;;;;;;;;;;5017435;28;20264;-61
2021/09/03 04:45:20;;;;;;;0.00;0.00;;;;;;;;;;5019353;28;20229;-60
2021/09/03 04:47:48;;;;;;;0.10;0.10;;;;;;;;;;5009492;28;20206;-60
2021/09/03 04:50:15;;;;;;;0.00;0.00;;;;;;;;;;5015857;28;20387;-61
2021/09/03 04:52:43;;;;;;;0.10;0.10;;;;;;;;;;5024433;28;20360;-62
2021/09/03 04:55:09;;;;;;;0.05;0.05;;;;;;;;;;5015418;28;20209;-61
2021/09/03 04:57:39;;;;;;;0.10;0.10;;;;;;;;;;5013938;28;20207;-62
2021/09/03 05:00:06;;;;;;;0.10;0.10;;;;;;;;;;5019174;28;20500;-62
2021/09/03 05:02:32;;;;;;;0.10;0.10;;;;;;;;;;5019495;28;20235;-62
2021/09/03 05:05:00;;;;;;;0.10;0.10;;;;;;;;;;5020679;28;20225;-62
2021/09/03 05:07:26;;;;;;;0.10;0.10;;;;;;;;;;5023328;28;20206;-62
2021/09/03 05:09:52;;;;;;;0.00;0.00;;;;;;;;;;5022887;28;20225;-61
2021/09/03 05:12:19;;;;;;;0.10;0.10;;;;;;;;;;5034011;28;20217;-63
2021/09/03 05:14:45;;;;;;;0.10;0.10;;;;;;;;;;5009126;28;20287;-61
2021/09/03 05:17:11;;;;;;;0.00;0.00;;;;;;;;;;5013264;28;20213;-61
2021/09/03 05:19:37;;;;;;;0.10;0.10;;;;;;;;;;5014483;28;20248;-61
2021/09/03 05:22:05;;;;;;;0.10;0.10;;;;;;;;;;5014792;28;20252;-61
2021/09/03 05:24:31;;;;;;;0.00;0.00;;;;;;;;;;5018531;28;20232;-62
2021/09/03 05:26:57;;;;;;;0.10;0.10;;;;;;;;;;5032956;28;20257;-61
2021/09/03 05:29:24;;;;;;;0.00;0.00;;;;;;;;;;5020272;28;20244;-61
2021/09/03 05:31:50;;;;;;;0.10;0.10;;;;;;;;;;5020815;28;20234;-62
2021/09/03 05:34:16;;;;;;;0.05;0.05;;;;;;;;;;5022295;28;20443;-61
2021/09/03 05:36:42;;;;;;;0.10;0.10;;;;;;;;;;5019800;28;20390;-62
2021/09/03 05:39:10;;;;;;;0.10;0.10;;;;;;;;;;5004529;28;20203;-61
2021/09/03 05:41:36;;;;;;;0.00;0.00;;;;;;;;;;5010728;28;20264;-62
2021/09/03 05:44:02;;;;;;;0.10;0.10;;;;;;;;;;5022486;28;20269;-61
2021/09/03 05:46:29;;;;;;;0.10;0.10;;;;;;;;;;5012587;28;20208;-61
2021/09/03 05:48:55;;;;;;;0.10;0.10;;;;;;;;;;5017275;28;20206;-62
2021/09/03 05:51:21;;;;;;;0.10;0.10;;;;;;;;;;5020009;28;20266;-61
2021/09/03 05:53:47;;;;;;;0.10;0.10;;;;;;;;;;5025939;28;20198;-62
2021/09/03 05:56:15;;;;;;;0.10;0.10;;;;;;;;;;5020136;28;20484;-61
2021/09/03 05:58:41;;;;;;;0.10;0.10;;;;;;;;;;5020252;28;20233;-60
2021/09/03 06:01:07;;;;;;;0.05;0.05;;;;;;;;;;5019827;28;20201;-61
2021/09/03 06:03:33;;;;;;;0.08;0.08;;;;;;;;;;5021560;28;20537;-62
2021/09/03 06:06:00;;;;;;;0.10;0.10;;;;;;;;;;5024597;28;20201;-62
2021/09/03 06:08:26;;;;;;;0.00;0.00;;;;;;;;;;5024795;28;20403;-60
2021/09/03 06:10:52;;;;;;;0.10;0.10;;;;;;;;;;5032298;28;20225;-61
2021/09/03 06:13:20;;;;;;;0.10;0.10;;;;;;;;;;5032238;28;20204;-61
2021/09/03 06:15:46;;;;;;;0.10;0.10;;;;;;;;;;5020889;28;20205;-62
2021/09/03 06:18:13;;;;;;;0.10;0.10;;;;;;;;;;5026191;28;20255;-62
2021/09/03 06:20:39;;;;;;;0.10;0.10;;;;;;;;;;5026381;28;20517;-61
2021/09/03 06:23:05;;;;;;;0.10;0.10;;;;;;;;;;5022218;28;20227;-61
2021/09/03 06:25:31;;;;;;;1.75;1.75;;;;;;;;;;5027835;28;20202;-61
2021/09/03 06:27:59;;;;;;;0.10;0.10;;;;;;;;;;5026102;28;20224;-60
2021/09/03 06:30:26;;;;;;;0.08;0.08;;;;;;;;;;5028253;28;20257;-61
2021/09/03 06:32:53;;;;;;;0.10;0.10;;;;;;;;;;5028479;28;20497;-61
2021/09/03 06:35:19;;;;;;;0.00;0.00;;;;;;;;;;5023715;28;20432;-62
2021/09/03 06:37:45;;;;;;;0.08;0.08;;;;;;;;;;5023568;28;20208;-61
2021/09/03 06:40:11;;;;;;;0.10;0.10;;;;;;;;;;5025491;28;20209;-61
2021/09/03 06:42:37;;;;;;;0.10;0.10;;;;;;;;;;5021263;28;20562;-61
2021/09/03 06:45:04;;;;;;;0.10;0.10;;;;;;;;;;5025707;28;20244;-61
2021/09/03 06:47:31;;;;;;;1.88;1.88;;;;;;;;;;5027963;28;20271;-61
2021/09/03 06:49:58;;;;;;;0.10;0.10;;;;;;;;;;5031549;28;20374;-62
2021/09/03 06:52:29;;;;;;;0.10;0.10;;;;;;;;;;5023789;28;20273;-60
2021/09/03 06:54:56;;;;;;;0.10;0.10;;;;;;;;;;5010357;28;20383;-61
2021/09/03 06:57:22;;;;;;;0.10;0.10;;;;;;;;;;5019478;28;20273;-61
2021/09/03 06:59:48;;;;;;;0.10;0.10;;;;;;;;;;5012801;28;20489;-62
2021/09/03 07:02:15;;;;;;;0.10;0.10;;;;;;;;;;5019168;28;20225;-62
2021/09/03 07:04:42;;;;;;;0.10;0.10;;;;;;;;;;5017223;28;20244;-61
2021/09/03 07:07:09;;;;;;;0.10;0.10;;;;;;;;;;5032311;28;20205;-61
2021/09/03 07:09:35;;;;;;;0.10;0.10;;;;;;;;;;5019324;28;20212;-61
2021/09/03 07:12:01;;;;;;;0.10;0.10;;;;;;;;;;5025376;28;20229;-61
2021/09/03 07:14:27;;;;;;;0.10;0.10;;;;;;;;;;5019464;28;20420;-61
2021/09/03 07:16:54;;;;;;;0.10;0.10;;;;;;;;;;5017216;28;20207;-61
2021/09/03 07:19:20;;;;;;;0.10;0.10;;;;;;;;;;5030081;28;20232;-62
2021/09/03 07:21:48;;;;;;;0.10;0.10;;;;;;;;;;5014643;28;20270;-60
2021/09/03 07:24:14;;;;;;;0.10;0.10;;;;;;;;;;5023824;28;20259;-62
2021/09/03 07:26:40;;;;;;;0.10;0.10;;;;;;;;;;5021758;28;20203;-62
2021/09/03 07:29:06;;;;;;;0.00;0.00;;;;;;;;;;5025123;28;20265;-62
2021/09/03 07:31:33;;;;;;;0.10;0.10;;;;;;;;;;5017984;28;20233;-61
2021/09/03 07:33:59;;;;;;;0.00;0.00;;;;;;;;;;5024874;28;20199;-61
2021/09/03 07:36:25;;;;;;;0.10;0.10;;;;;;;;;;5019235;28;20204;-62
2021/09/03 07:38:53;;;;;;;0.20;0.20;;;;;;;;;;5024806;28;20202;-62
2021/09/03 07:41:21;;;;;;;0.10;0.10;;;;;;;;;;5017262;28;20255;-62
2021/09/03 07:43:48;;;;;;;2.15;1.75;;;;;;;;;;5020968;28;20225;-61
2021/09/03 07:46:14;;;;;;;0.47;0.47;;;;;;;;;;5016047;28;20382;-62
2021/09/03 07:48:40;;;;;;;0.10;0.10;;;;;;;;;;5015317;28;20205;-60
2021/09/03 07:51:06;;;;;;;0.10;0.10;;;;;;;;;;5016906;28;20212;-61
2021/09/03 07:53:33;;;;;;;0.08;0.08;;;;;;;;;;5013757;28;20296;-62
2021/09/03 07:56:00;;;;;;;0.10;0.10;;;;;;;;;;5011617;28;20205;-61
2021/09/03 07:58:26;;;;;;;0.10;0.10;;;;;;;;;;5012999;28;20288;-61
2021/09/03 08:00:53;;;;;;;0.10;0.10;;;;;;;;;;5013730;28;20254;-62
2021/09/03 08:03:19;;;;;;;0.00;0.00;;;;;;;;;;5011949;28;20263;-62
2021/09/03 08:05:45;;;;;;;0.00;0.00;;;;;;;;;;5015288;28;20250;-60
2021/09/03 08:08:11;;;;;;;0.08;0.08;;;;;;;;;;5015629;28;20209;-62
2021/09/03 08:10:38;;;;;;;0.10;0.10;;;;;;;;;;5009620;28;20202;-63
2021/09/03 08:13:06;;;;;;;0.52;0.52;;;;;;;;;;5010692;28;20461;-63
2021/09/03 08:15:33;;;;;;;0.00;0.00;;;;;;;;;;5014387;28;20209;-62
2021/09/03 08:17:59;;;;;;;0.30;0.30;;;;;;;;;;5010327;28;20208;-63
2021/09/03 08:20:26;;;;;;;0.08;0.08;;;;;;;;;;5012686;28;20211;-63
2021/09/03 08:22:52;;;;;;;0.10;0.10;;;;;;;;;;5017125;28;20206;-62
2021/09/03 08:25:19;;;;;;;0.00;0.00;;;;;;;;;;5008838;28;20233;-62
2021/09/03 08:27:45;;;;;;;0.10;0.10;;;;;;;;;;5016018;28;20203;-63
2021/09/03 08:30:13;;;;;;;0.10;0.10;;;;;;;;;;5009579;28;20290;-62
2021/09/03 08:32:39;;;;;;;0.10;0.10;;;;;;;;;;5011994;28;20247;-62
2021/09/03 08:35:05;;;;;;;1.80;1.10;;;;;;;;;;5013506;28;20200;-63
2021/09/03 08:37:32;;;;;;;0.10;0.10;;;;;;;;;;5010070;28;20257;-63
2021/09/03 08:39:59;;;;;;;0.10;0.10;;;;;;;;;;5018377;28;20224;-61
2021/09/03 08:42:25;;;;;;;0.10;0.10;;;;;;;;;;5014722;28;20207;-61
2021/09/03 08:44:52;;;;;;;0.10;0.10;;;;;;;;;;5013115;28;20261;-61
2021/09/03 08:47:21;;;;;;;0.00;0.00;;;;;;;;;;5012178;28;20212;-62
2021/09/03 08:49:47;;;;;;;0.10;0.10;;;;;;;;;;5014340;28;20262;-61
2021/09/03 08:52:13;;;;;;;0.10;0.10;;;;;;;;;;5014290;28;20208;-62
2021/09/03 08:54:40;;;;;;;0.00;0.00;;;;;;;;;;5013906;28;20205;-62
2021/09/03 08:57:06;;;;;;;0.00;0.00;;;;;;;;;;5009038;28;20226;-62
2021/09/03 08:59:33;;;;;;;0.08;0.08;;;;;;;;;;5012891;28;20391;-61
2021/09/03 09:02:12;;;;;;;0.10;0.10;;;;;;;;;;5008724;28;20231;-61
2021/09/03 09:04:40;;;;;;;0.40;0.40;;;;;;;;;;5016728;28;20267;-62
2021/09/03 09:07:07;;;;;;;0.15;0.13;;;;;;;;;;5011315;28;20208;-62
2021/09/03 09:09:34;;;;;;;0.10;0.10;;;;;;;;;;5012116;28;20214;-61
2021/09/03 09:12:05;;;;;;;0.03;0.03;;;;;;;;;;5011392;28;20204;-61
2021/09/03 09:14:54;;;;;;;0.20;0.20;;;;;;;;;;5016385;28;20207;-62
2021/09/03 09:17:28;;;;;;;0.10;0.10;;;;;;;;;;5011209;28;20219;-61
2021/09/03 09:19:55;;;;;;;0.08;0.08;;;;;;;;;;5012018;28;20314;-62
2021/09/03 09:22:22;;;;;;;0.70;0.50;;;;;;;;;;5012631;28;20213;-61
2021/09/03 09:24:48;;;;;;;0.00;0.00;;;;;;;;;;5020857;28;20256;-62
2021/09/03 09:27:23;;;;;;;0.52;0.52;;;;;;;;;;5014198;28;20212;-62
2021/09/03 09:29:50;;;;;;;0.00;0.00;;;;;;;;;;5019713;28;20207;-62
2021/09/03 09:32:16;;;;;;;0.32;0.32;;;;;;;;;;5018022;28;20369;-62
2021/09/03 09:34:44;;;;;;;0.10;0.10;;;;;;;;;;5018955;28;20209;-62
2021/09/03 09:37:14;;;;;;;0.10;0.10;;;;;;;;;;5022157;28;20210;-61
2021/09/03 09:39:42;;;;;;;0.45;0.45;;;;;;;;;;5021296;28;20222;-62
2021/09/03 09:42:18;;;;;;;0.00;0.00;;;;;;;;;;5021434;28;20207;-62
2021/09/03 09:44:45;;;;;;;0.00;0.00;;;;;;;;;;5022802;28;20396;-62
2021/09/03 09:47:12;;;;;;;0.10;0.10;;;;;;;;;;5026987;28;20250;-61
2021/09/03 09:49:38;;;;;;;0.05;0.05;;;;;;;;;;5022897;28;20506;-62
2021/09/03 09:52:05;;;;;;;0.10;0.10;;;;;;;;;;5025357;28;20200;-61
2021/09/03 09:54:33;;;;;;;0.03;0.03;;;;;;;;;;5038849;28;20313;-62
2021/09/03 09:57:00;;;;;;;0.10;0.10;;;;;;;;;;5023816;28;20208;-62
2021/09/03 09:59:28;;;;;;;0.00;0.00;;;;;;;;;;5029212;28;20241;-61
2021/09/03 10:01:55;;;;;;;0.10;0.10;;;;;;;;;;5018487;28;20205;-62
2021/09/03 10:04:22;;;;;;;0.10;0.10;;;;;;;;;;5013238;28;20240;-62
2021/09/03 10:06:50;;;;;;;0.00;0.00;;;;;;;;;;5022717;28;20367;-61
2021/09/03 10:09:17;;;;;;;0.10;0.10;;;;;;;;;;5022351;28;20255;-61
2021/09/03 10:11:46;;;;;;;0.00;0.00;;;;;;;;;;5028210;28;20246;-62
2021/09/03 10:14:13;;;;;;;0.00;0.00;;;;;;;;;;5019600;28;20257;-62
2021/09/03 10:16:39;;;;;;;0.10;0.10;;;;;;;;;;5014741;28;20205;-62
2021/09/03 10:19:06;;;;;;;0.10;0.10;;;;;;;;;;5016146;28;20209;-62
2021/09/03 10:21:36;;;;;;;0.05;0.05;;;;;;;;;;5016646;28;20206;-62
2021/09/03 10:24:06;;;;;;;0.10;0.10;;;;;;;;;;5021910;28;20207;-62
2021/09/03 10:26:33;;;;;;;0.13;0.13;;;;;;;;;;5018748;28;20265;-62
2021/09/03 10:29:18;;;;;;;0.00;0.00;;;;;;;;;;5022295;28;20403;-62
2021/09/03 10:32:11;;;;;;;0.08;0.08;;;;;;;;;;5023786;28;20209;-62
2021/09/03 10:34:58;;;;;;;0.45;0.45;;;;;;;;;;5022288;28;20193;-62
2021/09/03 10:37:27;;;;;;;0.10;0.10;;;;;;;;;;5022335;28;20228;-62
2021/09/03 10:39:55;;;;;;;0.20;0.20;;;;;;;;;;5017831;28;20273;-62
2021/09/03 10:42:44;;;;;;;0.10;0.10;;;;;;;;;;5019410;28;20248;-62
2021/09/03 10:45:11;;;;;;;0.10;0.10;;;;;;;;;;5023455;28;20229;-62
2021/09/03 10:47:41;;;;;;;0.00;0.00;;;;;;;;;;5030265;28;20255;-62
2021/09/03 10:50:09;;;;;;;0.80;0.80;;;;;;;;;;5017598;28;20206;-63
2021/09/03 10:52:36;;;;;;;0.77;0.63;;;;;;;;;;5017969;28;20205;-61
2021/09/03 10:55:02;;;;;;;0.00;0.00;;;;;;;;;;5020409;28;20257;-62
2021/09/03 10:57:28;;;;;;;0.10;0.10;;;;;;;;;;5023070;28;20267;-63
2021/09/03 11:00:09;;;;;;;0.00;0.00;;;;;;;;;;5024945;28;20205;-62
2021/09/03 11:02:36;;;;;;;0.20;0.20;;;;;;;;;;5019510;28;20209;-62
2021/09/03 11:05:11;;;;;;;0.00;0.00;;;;;;;;;;5030029;28;20581;-61
2021/09/03 11:07:41;;;;;;;0.30;0.30;;;;;;;;;;5020092;28;20364;-62
2021/09/03 11:10:16;;;;;;;0.00;0.00;;;;;;;;;;5029483;28;20202;-62
2021/09/03 11:12:48;;;;;;;0.55;0.55;;;;;;;;;;5021153;28;20202;-62
2021/09/03 11:15:14;;;;;;;1.35;1.25;;;;;;;;;;5016441;28;20240;-62
2021/09/03 11:17:40;;;;;;;0.00;0.00;;;;;;;;;;5018808;28;20483;-63
2021/09/03 11:20:07;;;;;;;0.10;0.10;;;;;;;;;;5026642;28;20239;-62
2021/09/03 11:22:36;;;;;;;0.20;0.20;;;;;;;;;;5025521;28;20264;-62
2021/09/03 11:25:04;;;;;;;3.00;2.90;;;;;;;;;;5017974;28;20233;-62
2021/09/03 11:27:31;;;;;;;0.00;0.00;;;;;;;;;;5022622;28;20248;-61
2021/09/03 11:29:59;;;;;;;0.10;0.10;;;;;;;;;;5033943;28;20394;-63
2021/09/03 11:32:26;;;;;;;0.10;0.10;;;;;;;;;;5024744;28;20209;-62
2021/09/03 11:34:56;;;;;;;0.00;0.00;;;;;;;;;;5023405;28;20213;-62
2021/09/03 11:37:27;;;;;;;0.00;0.00;;;;;;;;;;5011794;28;20202;-66
2021/09/03 11:39:55;;;;;;;0.00;0.00;;;;;;;;;;5014805;28;20269;-70
2021/09/03 11:42:23;;;;;;;0.10;0.10;;;;;;;;;;5021100;28;20233;-69
2021/09/03 11:44:50;;;;;;;0.00;0.00;;;;;;;;;;5024609;28;20493;-61
2021/09/03 11:47:22;;;;;;;0.00;0.00;;;;;;;;;;5022356;28;20484;-62
2021/09/03 11:49:50;;;;;;;0.00;0.00;;;;;;;;;;5025241;28;20241;-65
2021/09/03 11:52:17;;;;;;;0.00;0.00;;;;;;;;;;5023921;28;20492;-68
2021/09/03 11:54:49;;;;;;;0.00;0.00;;;;;;;;;;5024099;28;20392;-69
2021/09/03 11:57:17;;;;;;;0.10;0.10;;;;;;;;;;5022936;28;20197;-69
2021/09/03 11:59:51;;;;;;;0.00;0.00;;;;;;;;;;5024573;28;20206;-71
2021/09/03 12:02:17;;;;;;;0.00;0.00;;;;;;;;;;5020096;28;20198;-69
2021/09/03 12:04:43;;;;;;;0.00;0.00;;;;;;;;;;5010446;28;20234;-68
2021/09/03 12:07:15;;;;;;;0.00;0.00;;;;;;;;;;5019700;28;20207;-68
2021/09/03 12:09:43;;;;;;;0.00;0.00;;;;;;;;;;5010664;28;20198;-69
2021/09/03 12:12:09;;;;;;;0.25;0.25;;;;;;;;;;5014861;28;20454;-70
2021/09/03 12:14:37;;;;;;;0.00;0.00;;;;;;;;;;5010534;28;20206;-70
2021/09/03 12:17:04;;;;;;;0.00;0.00;;;;;;;;;;5021243;28;20247;-62
2021/09/03 12:19:30;;;;;;;0.10;0.10;;;;;;;;;;5031422;28;20213;-62
2021/09/03 12:21:56;;;;;;;0.00;0.00;;;;;;;;;;5024295;28;20206;-62
2021/09/03 12:24:23;;;;;;;0.00;0.00;;;;;;;;;;5035568;28;20241;-61
2021/09/03 12:26:50;;;;;;;0.00;0.00;;;;;;;;;;5009972;28;20575;-61
2021/09/03 12:29:17;;;;;;;0.63;0.20;;;;;;;;;;5027488;28;20284;-61
2021/09/03 12:31:51;;;;;;;0.00;0.00;;;;;;;;;;5018896;28;20203;-62
2021/09/03 12:34:17;;;;;;;0.00;0.00;;;;;;;;;;5021836;28;20371;-61
2021/09/03 12:36:43;;;;;;;0.00;0.00;;;;;;;;;;5019421;28;20202;-61
2021/09/03 12:39:10;;;;;;;0.00;0.00;;;;;;;;;;5021873;28;20293;-61
2021/09/03 12:41:38;;;;;;;0.00;0.00;;;;;;;;;;5017055;28;20201;-61
2021/09/03 12:44:06;;;;;;;0.00;0.00;;;;;;;;;;5023605;28;20202;-62
2021/09/03 12:46:33;;;;;;;0.00;0.00;;;;;;;;;;5022594;28;20233;-62
2021/09/03 12:49:17;;;;;;;0.00;0.00;;;;;;;;;;5012747;28;20252;-61
2021/09/03 12:51:44;;;;;;;0.00;0.00;;;;;;;;;;5020649;28;20229;-61
2021/09/03 12:54:11;;;;;;;0.00;0.00;;;;;;;;;;5023507;28;20201;-61
2021/09/03 12:56:38;;;;;;;0.00;0.00;;;;;;;;;;5023143;28;20202;-61
2021/09/03 12:59:05;;;;;;;0.00;0.00;;;;;;;;;;5015274;28;20206;-61
2021/09/03 13:01:32;;;;;;;0.08;0.08;;;;;;;;;;5022669;28;20209;-62
2021/09/03 13:03:59;;;;;;;0.00;0.00;;;;;;;;;;5022557;28;20312;-68
2021/09/03 13:06:26;;;;;;;0.00;0.00;;;;;;;;;;5024103;28;20305;-66
2021/09/03 13:08:53;;;;;;;0.00;0.00;;;;;;;;;;5025713;28;20209;-66
2021/09/03 13:11:19;;;;;;;0.00;0.00;;;;;;;;;;5023056;28;20405;-66
2021/09/03 13:13:47;;;;;;;0.00;0.00;;;;;;;;;;5022610;28;20260;-67
2021/09/03 13:16:14;;;;;;;0.10;0.10;;;;;;;;;;5018108;28;20304;-65
2021/09/03 13:18:40;;;;;;;0.00;0.00;;;;;;;;;;5021599;28;20504;-65
2021/09/03 13:21:07;;;;;;;0.00;0.00;;;;;;;;;;5019768;28;20206;-65
2021/09/03 13:23:35;;;;;;;0.03;0.03;;;;;;;;;;5026536;28;20209;-65
2021/09/03 13:26:01;;;;;;;0.00;0.00;;;;;;;;;;5024049;28;20268;-63
2021/09/03 13:28:27;;;;;;;0.00;0.00;;;;;;;;;;5022634;28;20201;-64
2021/09/03 13:30:54;;;;;;;0.00;0.00;;;;;;;;;;5014459;28;20202;-62
2021/09/03 13:33:20;;;;;;;0.10;0.10;;;;;;;;;;5012759;28;20205;-64
2021/09/03 13:35:46;;;;;;;0.00;0.00;;;;;;;;;;5013143;28;20221;-63
2021/09/03 13:38:12;;;;;;;0.00;0.00;;;;;;;;;;5014894;28;20206;-63
2021/09/03 13:40:40;;;;;;;0.00;0.00;;;;;;;;;;5019284;28;20276;-62
2021/09/03 13:43:06;;;;;;;0.00;0.00;;;;;;;;;;5016386;28;20430;-63
2021/09/03 13:45:37;;;;;;;0.00;0.00;;;;;;;;;;5022151;28;20228;-62
2021/09/03 13:48:04;;;;;;;0.00;0.00;;;;;;;;;;5019543;28;20208;-64
2021/09/03 13:50:32;;;;;;;0.00;0.00;;;;;;;;;;5019526;28;20524;-63
2021/09/03 13:52:58;;;;;;;0.00;0.00;;;;;;;;;;5018333;28;20213;-62
2021/09/03 13:55:24;;;;;;;0.00;0.00;;;;;;;;;;5026454;28;20240;-62
2021/09/03 13:57:52;;;;;;;0.10;0.10;;;;;;;;;;5023393;28;20204;-63
2021/09/03 14:00:18;;;;;;;0.40;0.40;;;;;;;;;;5016465;28;20463;-64
2021/09/03 14:02:44;;;;;;;0.05;0.05;;;;;;;;;;5007042;28;20206;-63
2021/09/03 14:05:10;;;;;;;0.00;0.00;;;;;;;;;;5014516;28;20205;-63
2021/09/03 14:07:37;;;;;;;0.00;0.00;;;;;;;;;;5009137;28;20209;-64
2021/09/03 14:10:03;;;;;;;0.00;0.00;;;;;;;;;;5005489;28;20209;-62
2021/09/03 14:12:29;;;;;;;0.00;0.00;;;;;;;;;;5029945;28;20202;-63
2021/09/03 14:14:57;;;;;;;0.00;0.00;;;;;;;;;;5012670;28;21278;-63
2021/09/03 14:17:23;;;;;;;0.00;0.00;;;;;;;;;;5013587;28;20508;-63
2021/09/03 14:19:49;;;;;;;0.00;0.00;;;;;;;;;;5015514;28;20201;-63
2021/09/03 14:22:16;;;;;;;0.05;0.05;;;;;;;;;;5017646;28;20539;-63
2021/09/03 14:24:42;;;;;;;0.00;0.00;;;;;;;;;;5018225;28;20209;-63
2021/09/03 14:27:09;;;;;;;0.00;0.00;;;;;;;;;;5020280;28;20226;-63
2021/09/03 14:29:35;;;;;;;0.00;0.00;;;;;;;;;;5022751;28;20214;-62
2021/09/03 14:32:03;;;;;;;0.00;0.00;;;;;;;;;;5026386;28;20500;-62
2021/09/03 14:34:29;;;;;;;0.47;0.47;;;;;;;;;;5017613;28;20222;-61
2021/09/03 14:36:55;;;;;;;0.10;0.10;;;;;;;;;;5022781;28;20202;-63
2021/09/03 14:39:22;;;;;;;0.00;0.00;;;;;;;;;;5015821;28;20280;-63
2021/09/03 14:41:48;;;;;;;0.10;0.10;;;;;;;;;;5010703;28;20283;-62
2021/09/03 14:44:14;;;;;;;0.17;0.17;;;;;;;;;;5016927;28;20206;-62